Data for 12/05/2015

Time Sea-Level Adjusted Pressure Absolute Pressure Temperature Relative Humidity Dew Point   
(mb) (inHg) (mb) (inHg) (C) (F) (%) (C) (F)
00:05 1020 30.12 849 25.07 0.9 33.7 84 -1.4 29.5
00:10 1020 30.12 849 25.07 0.8 33.5 86 -1.3 29.6
00:15 1020 30.12 849 25.07 0.8 33.4 86 -1.3 29.6
00:20 1020 30.12 849 25.07 0.8 33.4 86 -1.3 29.7
00:25 1020 30.12 849 25.07 0.7 33.3 85 -1.5 29.3
00:30 1020 30.12 849 25.07 0.9 33.7 82 -1.7 28.9
00:35 1020 30.12 849 25.07 1.2 34.2 79 -2 28.5
00:40 1020 30.12 849 25.07 1.4 34.4 80 -1.7 28.9
00:45 1020 30.12 850 25.1 1.1 34 82 -1.7 29
00:50 1020 30.12 850 25.1 1 33.8 82 -1.7 29
00:55 1021 30.15 850 25.1 1 33.8 81 -1.9 28.7
01:00 1021 30.15 850 25.1 1.2 34.1 82 -1.7 29
01:05 1021 30.15 850 25.1 1.2 34.2 81 -1.6 29.1
01:10 1021 30.15 850 25.1 1.1 34 82 -1.6 29.2
01:15 1021 30.15 850 25.1 1 33.7 85 -1.3 29.6
01:20 1021 30.15 850 25.1 0.8 33.4 86 -1.3 29.7
01:25 1021 30.15 850 25.1 0.6 33.1 88 -1.2 29.9
01:30 1021 30.15 850 25.1 0.5 32.8 89 -1.1 29.9
01:35 1021 30.15 850 25.1 0.4 32.7 90 -1 30.1
01:40 1021 30.15 850 25.1 0.2 32.4 91 -1.1 30
01:45 1021 30.15 850 25.1 0.1 32.2 92 -1.1 30
01:50 1021 30.15 850 25.1 0.1 32.2 92 -1 30.2
01:55 1021 30.15 850 25.1 0.1 32.2 92 -1 30.2
02:00 1021 30.15 850 25.1 0.2 32.3 92 -1 30.2
02:05 1021 30.15 850 25.1 0.3 32.5 92 -0.9 30.3
02:10 1021 30.15 850 25.1 0.3 32.5 92 -0.9 30.4
02:15 1021 30.15 850 25.1 0.3 32.5 92 -0.9 30.4
02:20 1021 30.15 850 25.1 0.3 32.5 92 -0.9 30.4
02:25 1021 30.15 850 25.1 0.3 32.5 92 -0.9 30.4
02:30 1021 30.15 850 25.1 0.3 32.5 92 -0.8 30.5
02:35 1021 30.15 851 25.13 0.3 32.5 92 -0.8 30.5
02:40 1021 30.15 851 25.13 0.2 32.4 92 -0.8 30.5
02:45 1021 30.15 851 25.13 0.2 32.4 92 -0.8 30.5
02:50 1021 30.15 851 25.13 0.2 32.4 93 -0.9 30.5
02:55 1022 30.18 851 25.13 0.2 32.3 93 -0.9 30.5
03:00 1022 30.18 851 25.13 0.2 32.4 93 -0.8 30.5
03:05 1022 30.18 851 25.13 0.2 32.3 93 -0.8 30.5
03:10 1022 30.18 851 25.13 0.2 32.3 93 -0.8 30.5
03:15 1022 30.18 851 25.13 0.1 32.2 93 -0.8 30.5
03:20 1022 30.18 851 25.13 0 32 93 -0.9 30.3
03:25 1022 30.18 851 25.13 -0 31.9 93 -1 30.2
03:30 1022 30.18 852 25.16 -0.1 31.8 93 -1.1 30
03:35 1023 30.21 852 25.16 -0.1 31.7 93 -1.2 29.9
03:40 1023 30.21 852 25.16 -0.2 31.7 93 -1.2 29.8
03:45 1023 30.21 852 25.16 -0.2 31.7 93 -1.2 29.8
03:50 1023 30.21 852 25.16 -0.1 31.7 92 -1.3 29.6
03:55 1023 30.21 852 25.16 -0.1 31.8 91 -1.4 29.4
04:00 1023 30.21 852 25.16 -0.1 31.8 91 -1.4 29.4
04:05 1023 30.21 852 25.16 -0.1 31.8 90 -1.5 29.3
04:10 1023 30.21 852 25.16 -0 31.9 88 -1.8 28.7
04:15 1023 30.21 852 25.16 -0 31.9 87 -2 28.4
04:20 1023 30.21 852 25.16 -0 32 85 -2.2 28
04:25 1023 30.21 852 25.16 0 32.1 83 -2.5 27.5
04:30 1023 30.21 852 25.16 0.2 32.3 83 -2.3 27.8
04:35 1023 30.21 853 25.19 0.2 32.4 83 -2.4 27.7
04:40 1023 30.21 853 25.19 0.3 32.5 82 -2.5 27.5
04:45 1023 30.21 853 25.19 0.4 32.7 81 -2.6 27.4
04:50 1023 30.21 853 25.19 0.4 32.7 80 -2.6 27.4
04:55 1023 30.21 853 25.19 0.5 32.9 80 -2.6 27.4
05:00 1023 30.21 853 25.19 0.5 32.9 80 -2.5 27.4
05:05 1024 30.24 853 25.19 0.5 32.9 80 -2.5 27.5
05:10 1024 30.24 853 25.19 0.5 32.8 80 -2.6 27.4
05:15 1024 30.24 853 25.19 0.4 32.7 80 -2.6 27.3
05:20 1024 30.24 853 25.19 0.3 32.6 81 -2.6 27.2
05:25 1024 30.24 853 25.19 0.1 32.2 80 -2.9 26.8
05:30 1024 30.24 853 25.19 -0.1 31.8 81 -3 26.6
05:35 1024 30.24 853 25.19 -0.2 31.6 81 -3.1 26.5
05:40 1024 30.24 853 25.19 -0.3 31.5 82 -3 26.6
05:45 1024 30.24 853 25.19 -0.4 31.3 82 -3.1 26.4
05:50 1024 30.24 853 25.19 -0.4 31.2 82 -3.1 26.5
05:55 1024 30.24 853 25.19 -0.5 31.1 82 -3.2 26.2
06:00 1024 30.24 853 25.19 -0.5 31 82 -3.3 26.1
06:05 1024 30.24 853 25.19 -0.5 31 81 -3.5 25.8
06:10 1024 30.24 853 25.19 -0.4 31.4 80 -3.5 25.8
06:15 1024 30.24 853 25.19 -0.5 31.2 80 -3.5 25.8
06:20 1024 30.24 853 25.19 -0.6 30.9 80 -3.7 25.3
06:25 1024 30.24 853 25.19 -0.5 31 79 -3.8 25.2
06:30 1024 30.24 853 25.19 -0.8 30.7 80 -3.9 25.1
06:35 1024 30.24 853 25.19 -1 30.2 81 -3.8 25.1
06:40 1024 30.24 853 25.19 -1 30.3 81 -3.9 25.1
06:45 1024 30.24 853 25.19 -0.8 30.5 83 -3.4 25.9
06:50 1024 30.24 853 25.19 -1 30.1 84 -3.4 25.9
06:55 1024 30.24 853 25.19 -1.3 29.7 86 -3.3 26.1
07:00 1024 30.24 853 25.19 -1.3 29.6 86 -3.3 26.1
07:05 1024 30.24 853 25.19 -1.2 29.8 83 -3.8 25.2
07:10 1024 30.24 853 25.19 -1.3 29.7 82 -3.9 25
07:15 1024 30.24 853 25.19 -1.4 29.5 82 -4 24.8
07:20 1024 30.24 853 25.19 -1.4 29.5 81 -4.2 24.5
07:25 1024 30.24 853 25.19 -1.3 29.7 80 -4.3 24.2
07:30 1024 30.24 853 25.19 -1.3 29.6 80 -4.4 24.1
07:35 1024 30.24 853 25.19 -1.5 29.3 80 -4.5 24
07:40 1024 30.24 853 25.19 -1.5 29.4 80 -4.5 23.8
07:45 1024 30.24 853 25.19 -1.6 29.2 81 -4.4 24.1
07:50 1024 30.24 853 25.19 -1.7 29 81 -4.5 24
07:55 1024 30.24 853 25.19 -1.8 28.8 82 -4.4 24.1
08:00 1024 30.24 853 25.19 -2.1 28.3 83 -4.6 23.8
08:05 1024 30.24 853 25.19 -2.3 27.8 85 -4.5 23.9
08:10 1024 30.24 854 25.22 -2.7 27.1 86 -4.8 23.4
08:15 1024 30.24 854 25.22 -3.1 26.5 88 -4.8 23.3
08:20 1024 30.24 854 25.22 -3.1 26.5 88 -4.8 23.4
08:25 1025 30.27 854 25.22 -3.1 26.5 88 -4.7 23.5
08:30 1025 30.27 854 25.22 -3 26.5 88 -4.7 23.5
08:35 1025 30.27 854 25.22 -3.1 26.5 87 -4.9 23.3
08:40 1025 30.27 854 25.22 -3 26.5 87 -5 23.1
08:45 1025 30.27 854 25.22 -3.2 26.3 87 -5.1 22.8
08:50 1025 30.27 854 25.22 -3.2 26.2 86 -5.3 22.4
08:55 1025 30.27 854 25.22 -3.4 26 86 -5.4 22.3
09:00 1025 30.27 854 25.22 -3.3 26.1 85 -5.4 22.2
09:05 1025 30.27 854 25.22 -2.9 26.8 83 -5.4 22.3
09:10 1025 30.27 854 25.22 -2.7 27.1 82 -5.3 22.4
09:15 1025 30.27 855 25.25 -2.7 27.2 81 -5.4 22.3
09:20 1025 30.27 855 25.25 -2.8 26.9 82 -5.5 22
09:25 1026 30.3 855 25.25 -3.2 26.2 83 -5.7 21.7
09:30 1025 30.27 855 25.25 -3.3 26.1 83 -5.8 21.5
09:35 1025 30.27 855 25.25 -3.2 26.2 82 -5.8 21.5
09:40 1025 30.27 855 25.25 -3.3 26.1 82 -5.9 21.4
09:45 1026 30.3 855 25.25 -3.2 26.3 81 -5.9 21.3
09:50 1026 30.3 855 25.25 -3 26.6 81 -5.8 21.5
09:55 1026 30.3 855 25.25 -3 26.7 80 -5.9 21.4
10:00 1026 30.3 855 25.25 -2.8 27 79 -5.9 21.4
10:05 1026 30.3 855 25.25 -2.5 27.4 78 -5.8 21.6
10:10 1026 30.3 855 25.25 -2.4 27.7 78 -5.8 21.6
10:15 1026 30.3 855 25.25 -2.5 27.4 78 -5.9 21.3
10:20 1026 30.3 855 25.25 -2.4 27.6 78 -5.7 21.7
10:25 1026 30.3 855 25.25 -2.4 27.7 78 -5.8 21.6
10:30 1026 30.3 855 25.25 -2.4 27.6 78 -5.8 21.5
10:35 1026 30.3 855 25.25 -2.1 28.2 77 -5.6 21.9
10:40 1026 30.3 855 25.25 -1.7 28.9 76 -5.5 22.2
10:45 1026 30.3 855 25.25 -1.6 29.2 74 -5.6 21.9
10:50 1026 30.3 855 25.25 -1.4 29.5 73 -5.7 21.8
10:55 1026 30.3 855 25.25 -1 30.3 72 -5.4 22.2
11:00 1026 30.3 855 25.25 -0.7 30.7 72 -5.1 22.8
11:05 1026 30.3 856 25.28 0.3 32.5 68 -4.9 23.2
11:10 1026 30.3 856 25.28 0.8 33.4 66 -4.9 23.2
11:15 1027 30.33 856 25.28 0.8 33.4 65 -5 22.9
11:20 1027 30.33 856 25.28 1.3 34.3 65 -4.7 23.6
11:25 1027 30.33 856 25.28 1.2 34.1 65 -4.7 23.6
11:30 1027 30.33 856 25.28 1.4 34.5 62 -5.1 22.8
11:35 1027 30.33 856 25.28 0.6 33.1 65 -5.2 22.6
11:40 1027 30.33 856 25.28 0.8 33.4 64 -5.3 22.4
11:45 1027 30.33 856 25.28 1.1 33.9 64 -4.9 23.2
11:50 1027 30.33 856 25.28 1.5 34.8 63 -4.8 23.3
11:55 1027 30.33 856 25.28 2.3 36.2 62 -4.2 24.4
12:00 1027 30.33 856 25.28 2.8 37.1 59 -4.4 24.1
12:05 1027 30.33 856 25.28 2.9 37.2 58 -4.5 24
12:10 1027 30.33 856 25.28 2 35.6 60 -4.9 23.2
12:15 1027 30.33 856 25.28 2.5 36.6 58 -4.8 23.3
12:20 1027 30.33 856 25.28 2.5 36.5 58 -5 23.1
12:25 1027 30.33 856 25.28 2.8 37 56 -5.2 22.7
12:30 1027 30.33 856 25.28 3 37.4 56 -5 23
12:35 1027 30.33 856 25.28 3.2 37.7 58 -4.3 24.3
12:40 1027 30.33 856 25.28 2.8 37.1 59 -4.4 24.1
12:45 1027 30.33 856 25.28 3.5 38.3 55 -4.6 23.7
12:50 1027 30.33 856 25.28 3.6 38.5 56 -4.3 24.2
12:55 1027 30.33 856 25.28 3.8 38.8 55 -4.4 24.1
13:00 1027 30.33 856 25.28 3.3 38 55 -4.8 23.4
13:05 1026 30.3 856 25.28 3.7 38.7 55 -4.6 23.7
13:10 1026 30.3 856 25.28 3.3 37.9 57 -4.4 24
13:15 1026 30.3 856 25.28 3.3 37.9 55 -4.9 23.2
13:20 1026 30.3 856 25.28 3.3 38 55 -4.9 23.1
13:25 1026 30.3 856 25.28 3.6 38.4 54 -4.9 23.2
13:30 1026 30.3 856 25.28 3.5 38.3 55 -4.8 23.4
13:35 1026 30.3 856 25.28 3.6 38.5 54 -4.8 23.4
13:40 1026 30.3 855 25.25 3.6 38.5 55 -4.7 23.5
13:45 1026 30.3 855 25.25 4 39.2 53 -4.8 23.4
13:50 1026 30.3 855 25.25 4.2 39.6 52 -4.7 23.5
13:55 1026 30.3 855 25.25 4.1 39.3 52 -5 23
14:00 1026 30.3 855 25.25 4 39.2 52 -5 23
14:05 1026 30.3 855 25.25 4.1 39.3 53 -4.8 23.4
14:10 1026 30.3 855 25.25 4 39.2 53 -4.7 23.6
14:15 1026 30.3 855 25.25 3.9 39 51 -5.2 22.6
14:20 1026 30.3 855 25.25 3.7 38.7 51 -5.4 22.2
14:25 1026 30.3 855 25.25 3.5 38.4 52 -5.5 22.2
14:30 1026 30.3 855 25.25 3.7 38.6 51 -5.5 22.2
14:35 1026 30.3 855 25.25 3.8 38.9 50 -5.7 21.8
14:40 1026 30.3 855 25.25 3.7 38.7 50 -5.8 21.5
14:45 1026 30.3 855 25.25 3.8 38.9 51 -5.5 22.2
14:50 1026 30.3 855 25.25 3.7 38.7 51 -5.5 22.1
14:55 1025 30.27 855 25.25 3.8 38.9 50 -5.6 21.9
15:00 1025 30.27 855 25.25 3.9 39 49 -6 21.2
15:05 1025 30.27 854 25.22 4 39.2 49 -5.6 21.8
15:10 1025 30.27 854 25.22 4.1 39.4 47 -6.3 20.6
15:15 1025 30.27 854 25.22 3.7 38.7 49 -6.1 20.9
15:20 1025 30.27 854 25.22 3.6 38.5 49 -6.2 20.9
15:25 1025 30.27 854 25.22 3.9 39.1 47 -6.5 20.3
15:30 1025 30.27 854 25.22 4.6 40.3 46 -6.1 21.1
15:35 1025 30.27 854 25.22 5.1 41.3 44 -6.1 21
15:40 1025 30.27 854 25.22 5.4 41.8 43 -6.1 21
15:45 1025 30.27 854 25.22 5.1 41.1 45 -6 21.2
15:50 1025 30.27 854 25.22 4.8 40.7 45 -6 21.2
15:55 1025 30.27 854 25.22 4.5 40 46 -6 21.1
16:00 1025 30.27 855 25.25 3.9 39 48 -6.1 21
16:05 1025 30.27 855 25.25 3.4 38.2 50 -6.1 20.9
16:10 1026 30.3 855 25.25 2.9 37.2 50 -6.6 20.1
16:15 1026 30.3 855 25.25 2.5 36.5 50 -6.8 19.7
16:20 1026 30.3 855 25.25 2.7 36.8 49 -7.1 19.3
16:25 1026 30.3 855 25.25 3 37.4 47 -7.2 19.1
16:30 1026 30.3 855 25.25 2.9 37.2 47 -7.2 19
16:35 1026 30.3 855 25.25 2.8 37.1 48 -7.2 19.1
16:40 1026 30.3 855 25.25 2.8 37 48 -7.1 19.2
16:45 1026 30.3 855 25.25 2.9 37.1 48 -7.2 19.1
16:50 1026 30.3 855 25.25 3 37.3 47 -7.3 18.9
16:55 1026 30.3 855 25.25 3.3 37.9 47 -7 19.4
17:00 1026 30.3 855 25.25 3.3 38 48 -6.8 19.8
17:05 1026 30.3 855 25.25 3.4 38.1 48 -6.6 20.1
17:10 1026 30.3 855 25.25 2.9 37.2 51 -6.4 20.6
17:15 1026 30.3 855 25.25 2.5 36.5 51 -6.6 20.2
17:20 1026 30.3 855 25.25 2.3 36.2 53 -6.2 20.8
17:25 1026 30.3 855 25.25 2 35.7 56 -5.8 21.6
17:30 1026 30.3 855 25.25 1.3 34.3 59 -5.9 21.3
17:35 1026 30.3 855 25.25 0.8 33.5 60 -6.1 21
17:40 1026 30.3 855 25.25 0.6 33.1 59 -6.4 20.4
17:45 1026 30.3 855 25.25 0.6 33.1 59 -6.5 20.2
17:50 1026 30.3 855 25.25 0.6 33 61 -6 21.1
17:55 1026 30.3 855 25.25 0.3 32.5 64 -5.8 21.5
18:00 1026 30.3 855 25.25 -0.2 31.7 65 -6 21.2
18:05 1026 30.3 855 25.25 -0.5 31 64 -6.5 20.3
18:10 1026 30.3 855 25.25 -0.8 30.6 65 -6.7 20
18:15 1026 30.3 855 25.25 -1 30.2 63 -7.3 18.9
18:20 1026 30.3 855 25.25 -0.9 30.3 64 -7 19.4
18:25 1026 30.3 855 25.25 -0.9 30.4 64 -6.9 19.5
18:30 1026 30.3 855 25.25 -0.9 30.4 67 -6.2 20.8
18:35 1026 30.3 855 25.25 -1.1 30 70 -6 21.2
18:40 1026 30.3 855 25.25 -1.3 29.7 69 -6.3 20.7
18:45 1026 30.3 855 25.25 -1.3 29.7 68 -6.5 20.3
18:50 1026 30.3 855 25.25 -1.5 29.4 67 -6.8 19.8
18:55 1026 30.3 855 25.25 -1.7 28.9 69 -6.7 19.9
19:00 1026 30.3 855 25.25 -1.8 28.7 70 -6.6 20.2
19:05 1026 30.3 855 25.25 -1.5 29.3 67 -6.8 19.8
19:10 1026 30.3 855 25.25 -1.1 30 65 -6.9 19.7
19:15 1026 30.3 855 25.25 -1 30.1 65 -6.8 19.8
19:20 1026 30.3 855 25.25 -1.2 29.8 66 -6.8 19.8
19:25 1026 30.3 855 25.25 -1.5 29.3 65 -7.3 18.9
19:30 1026 30.3 855 25.25 -1.4 29.4 64 -7.4 18.6
19:35 1026 30.3 855 25.25 -1.2 29.9 62 -7.6 18.2
19:40 1026 30.3 855 25.25 -1 30.2 62 -7.4 18.6
19:45 1026 30.3 855 25.25 -1.1 30.1 61 -7.6 18.3
19:50 1026 30.3 855 25.25 -0.9 30.4 60 -7.7 18.2
19:55 1026 30.3 855 25.25 -1 30.1 61 -7.7 18.1
20:00 1026 30.3 855 25.25 -1.1 30 61 -7.7 18.1
20:05 1026 30.3 855 25.25 -1.3 29.7 60 -8 17.7
20:10 1026 30.3 855 25.25 -1.3 29.6 59 -8.3 17.1
20:15 1026 30.3 855 25.25 -1.2 29.8 58 -8.4 16.8
20:20 1026 30.3 855 25.25 -1.2 29.9 58 -8.3 17
20:25 1026 30.3 855 25.25 -1.1 30.1 57 -8.5 16.8
20:30 1026 30.3 855 25.25 -1 30.2 57 -8.5 16.7
20:35 1026 30.3 855 25.25 -1 30.1 58 -8.3 17
20:40 1026 30.3 855 25.25 -1.2 29.8 58 -8.5 16.7
20:45 1026 30.3 855 25.25 -1.1 30 58 -8.4 16.9
20:50 1026 30.3 855 25.25 -1.3 29.6 58 -8.5 16.8
20:55 1026 30.3 855 25.25 -1.5 29.3 59 -8.4 16.8
21:00 1026 30.3 855 25.25 -1.6 29.1 59 -8.5 16.7
21:05 1026 30.3 855 25.25 -1.8 28.8 60 -8.6 16.5
21:10 1026 30.3 855 25.25 -2.1 28.2 61 -8.6 16.4
21:15 1026 30.3 855 25.25 -2.3 27.9 60 -8.9 15.9
21:20 1026 30.3 855 25.25 -2.2 28.1 60 -8.8 16.1
21:25 1026 30.3 855 25.25 -2.1 28.2 60 -9 15.8
21:30 1026 30.3 855 25.25 -2.2 28 59 -9.1 15.7
21:35 1026 30.3 855 25.25 -2.3 27.9 61 -8.8 16.2
21:40 1026 30.3 855 25.25 -2.6 27.2 62 -8.9 15.9
21:45 1026 30.3 855 25.25 -2.8 27 61 -9.2 15.4
21:50 1026 30.3 855 25.25 -2.6 27.4 60 -9.2 15.4
21:55 1026 30.3 855 25.25 -2.3 27.9 59 -9.2 15.5
22:00 1026 30.3 855 25.25 -2.3 27.8 60 -9.1 15.7
22:05 1026 30.3 855 25.25 -2.3 27.8 60 -9.2 15.5
22:10 1026 30.3 855 25.25 -2.4 27.6 61 -9.1 15.7
22:15 1026 30.3 855 25.25 -2.7 27.1 62 -9.1 15.7
22:20 1026 30.3 855 25.25 -2.7 27.1 62 -9.1 15.6
22:25 1026 30.3 855 25.25 -2.5 27.4 60 -9.2 15.4
22:30 1026 30.3 855 25.25 -2.6 27.4 60 -9.3 15.3
22:35 1026 30.3 855 25.25 -2.7 27.1 61 -9.3 15.2
22:40 1026 30.3 855 25.25 -2.8 26.9 59 -9.7 14.5
22:45 1025 30.27 855 25.25 -2.9 26.8 60 -9.6 14.7
22:50 1025 30.27 855 25.25 -3 26.7 63 -9.1 15.6
22:55 1025 30.27 855 25.25 -3 26.5 63 -9.1 15.6
23:00 1025 30.27 855 25.25 -3.1 26.4 62 -9.4 15.1
23:05 1025 30.27 854 25.22 -2.8 26.9 61 -9.5 15
23:10 1025 30.27 854 25.22 -2.8 26.9 62 -9.2 15.5
23:15 1025 30.27 854 25.22 -3 26.6 62 -9.4 15.1
23:20 1025 30.27 854 25.22 -2.8 27 61 -9.3 15.3
23:25 1025 30.27 854 25.22 -2.7 27.1 61 -9.3 15.3
23:30 1025 30.27 854 25.22 -2.8 27 60 -9.4 15.1
23:35 1025 30.27 854 25.22 -2.5 27.5 59 -9.4 15.1
23:40 1025 30.27 854 25.22 -2.4 27.7 59 -9.3 15.2
23:45 1025 30.27 854 25.22 -2.8 27 61 -9.3 15.2
23:50 1025 30.27 854 25.22 -2.8 27 61 -9.3 15.2
23:55 1025 30.27 854 25.22 -2.9 26.8 61 -9.4 15.2
24:00 1025 30.27 854 25.22 -3 26.7 62 -9.3 15.3